createdAt,value
2023-03-31T00:01:13.852Z,87.35
2023-03-31T00:03:44.749Z,87.38
2023-03-31T00:06:19.168Z,87.60
2023-03-31T00:08:51.647Z,87.69
2023-03-31T00:11:22.099Z,87.77
2023-03-31T00:13:50.298Z,87.64
2023-03-31T00:16:18.504Z,87.67
2023-03-31T00:18:51.152Z,87.89
2023-03-31T00:21:25.990Z,87.82
2023-03-31T00:23:56.531Z,88.04
2023-03-31T00:26:26.693Z,88.07
2023-03-31T00:28:54.679Z,88.09
2023-03-31T00:31:23.331Z,87.90
2023-03-31T00:33:51.362Z,88.14
2023-03-31T00:36:27.415Z,88.21
2023-03-31T00:39:00.458Z,88.28
2023-03-31T00:41:29.619Z,88.08
2023-03-31T00:44:18.931Z,87.98
2023-03-31T00:47:02.252Z,88.09
2023-03-31T00:49:41.802Z,88.41
2023-03-31T00:52:15.609Z,88.48
2023-03-31T00:54:47.346Z,88.60
2023-03-31T00:57:16.165Z,88.66
2023-03-31T00:59:49.861Z,88.74
2023-03-31T01:02:20.801Z,88.90
2023-03-31T01:04:54.982Z,89.04
2023-03-31T01:07:38.940Z,88.98
2023-03-31T01:10:07.531Z,88.86
2023-03-31T01:12:42.683Z,89.12
2023-03-31T01:15:11.516Z,89.30
2023-03-31T01:17:45.020Z,89.11
2023-03-31T01:20:25.297Z,89.30
2023-03-31T01:23:15.445Z,89.26
2023-03-31T01:26:07.928Z,89.49
2023-03-31T01:28:55.000Z,89.40
2023-03-31T01:31:32.919Z,89.59
2023-03-31T01:34:21.176Z,89.63
2023-03-31T01:37:15.434Z,89.45
2023-03-31T01:40:11.000Z,89.78
2023-03-31T01:42:56.482Z,89.77
2023-03-31T01:45:33.829Z,89.70
2023-03-31T01:48:13.325Z,89.76
2023-03-31T01:50:44.037Z,89.71
2023-03-31T01:53:33.797Z,89.76
2023-03-31T01:56:07.738Z,89.61
2023-03-31T01:58:41.745Z,89.70
2023-03-31T02:01:26.890Z,89.65
2023-03-31T02:04:07.288Z,89.58
2023-03-31T02:06:40.591Z,89.41
2023-03-31T02:09:16.588Z,89.28
2023-03-31T02:11:47.682Z,89.29
2023-03-31T02:14:22.014Z,89.31
2023-03-31T02:16:58.465Z,89.19
2023-03-31T02:19:31.516Z,89.19
2023-03-31T02:22:01.567Z,89.34
2023-03-31T02:24:31.587Z,89.39
2023-03-31T02:27:38.859Z,89.45
2023-03-31T02:30:08.700Z,89.39
2023-03-31T02:32:46.784Z,89.34
2023-03-31T02:35:19.480Z,89.23
2023-03-31T02:37:52.599Z,89.45
2023-03-31T02:40:22.934Z,89.11
2023-03-31T02:42:51.186Z,88.95
2023-03-31T02:45:37.816Z,89.23
2023-03-31T02:48:14.902Z,89.12
2023-03-31T02:51:01.912Z,89.03
2023-03-31T02:53:51.530Z,89.12
2023-03-31T02:56:31.909Z,89.06
2023-03-31T02:59:21.542Z,88.94
2023-03-31T03:02:37.910Z,88.86
2023-03-31T03:05:49.863Z,88.62
2023-03-31T03:09:01.427Z,88.74
2023-03-31T03:11:54.916Z,88.92
2023-03-31T03:14:48.197Z,88.84
2023-03-31T03:17:29.131Z,89.04
2023-03-31T03:20:01.362Z,89.00
2023-03-31T03:22:29.292Z,88.91
2023-03-31T03:24:57.242Z,89.06
2023-03-31T03:27:25.196Z,89.15
2023-03-31T03:29:53.127Z,89.30
2023-03-31T03:32:21.038Z,89.07
2023-03-31T03:34:49.039Z,88.96
2023-03-31T03:37:17.021Z,88.94
2023-03-31T03:39:44.937Z,88.74
2023-03-31T03:42:12.880Z,88.75
2023-03-31T03:44:40.844Z,88.96
2023-03-31T03:47:08.740Z,88.84
2023-03-31T03:49:36.749Z,88.95
2023-03-31T03:52:04.899Z,88.82
2023-03-31T03:54:32.988Z,88.82
2023-03-31T03:57:01.092Z,88.73
2023-03-31T03:59:29.137Z,88.85
2023-03-31T04:01:58.024Z,88.78
2023-03-31T04:04:26.046Z,88.86
2023-03-31T04:06:54.081Z,88.63
2023-03-31T04:09:22.600Z,88.82
2023-03-31T04:11:50.664Z,88.61
2023-03-31T04:14:18.699Z,88.80
2023-03-31T04:16:47.058Z,88.47
2023-03-31T04:19:17.692Z,88.46
2023-03-31T04:21:45.842Z,88.63
2023-03-31T04:24:21.661Z,88.41
2023-03-31T04:26:51.073Z,88.45
2023-03-31T04:29:22.624Z,88.29
2023-03-31T04:31:52.741Z,88.51
2023-03-31T04:34:22.285Z,88.34
2023-03-31T04:36:50.175Z,88.26
2023-03-31T04:39:30.800Z,88.21
2023-03-31T04:41:59.781Z,88.42
2023-03-31T04:44:27.921Z,88.22
2023-03-31T04:46:56.713Z,88.16
2023-03-31T04:49:24.887Z,88.00
2023-03-31T04:51:52.957Z,88.16
2023-03-31T04:54:21.136Z,88.07
2023-03-31T04:56:49.129Z,88.16
2023-03-31T04:59:17.134Z,88.05
2023-03-31T05:01:45.764Z,88.00
2023-03-31T05:04:13.945Z,87.80
2023-03-31T05:06:41.869Z,87.94
2023-03-31T05:09:10.228Z,87.78
2023-03-31T05:11:38.478Z,87.87
2023-03-31T05:14:06.606Z,87.65
2023-03-31T05:16:34.724Z,87.70
2023-03-31T05:19:02.872Z,87.54
2023-03-31T05:21:31.420Z,87.64
2023-03-31T05:23:59.469Z,87.58
2023-03-31T05:26:27.505Z,87.53
2023-03-31T05:28:55.558Z,87.44
2023-03-31T05:31:23.889Z,87.53
2023-03-31T05:33:51.967Z,87.52
2023-03-31T05:36:20.057Z,87.28
2023-03-31T05:38:48.409Z,87.42
2023-03-31T05:41:17.136Z,87.18
2023-03-31T05:43:45.166Z,87.20
2023-03-31T05:46:13.185Z,87.30
2023-03-31T05:48:41.974Z,87.03
2023-03-31T05:51:09.911Z,87.24
2023-03-31T05:53:37.853Z,87.03
2023-03-31T05:56:10.059Z,86.87
2023-03-31T05:58:38.705Z,86.80
2023-03-31T06:01:17.645Z,86.48
2023-03-31T06:03:46.985Z,85.80
2023-03-31T06:06:16.623Z,85.91
2023-03-31T06:08:46.530Z,85.16
2023-03-31T06:11:17.434Z,84.45
2023-03-31T06:13:46.872Z,84.21
2023-03-31T06:16:17.437Z,83.59
2023-03-31T06:18:46.139Z,83.43
2023-03-31T06:21:16.969Z,83.26
2023-03-31T06:23:46.233Z,83.64
2023-03-31T06:26:16.954Z,83.48
2023-03-31T06:28:46.592Z,83.01
2023-03-31T06:31:18.118Z,83.12
2023-03-31T06:33:46.481Z,82.93
2023-03-31T06:36:16.809Z,82.46
2023-03-31T06:38:45.374Z,81.57
2023-03-31T06:41:15.089Z,80.96
2023-03-31T06:43:43.146Z,81.09
2023-03-31T06:46:11.987Z,80.54
2023-03-31T06:48:41.424Z,80.27
2023-03-31T06:51:10.325Z,80.13
2023-03-31T06:53:38.380Z,79.18
2023-03-31T06:56:07.555Z,78.80
2023-03-31T06:58:36.565Z,78.67
2023-03-31T07:01:06.546Z,78.41
2023-03-31T07:03:35.022Z,78.00
2023-03-31T07:06:03.292Z,78.25
2023-03-31T07:08:31.421Z,78.26
2023-03-31T07:11:01.063Z,77.42
2023-03-31T07:13:29.898Z,77.39
2023-03-31T07:15:58.392Z,77.49
2023-03-31T07:18:26.579Z,77.55
2023-03-31T07:20:54.584Z,77.24
2023-03-31T07:23:22.911Z,76.64
2023-03-31T07:25:50.946Z,76.70
2023-03-31T07:28:19.007Z,76.58
2023-03-31T07:30:47.005Z,76.52
2023-03-31T07:33:15.943Z,75.88
2023-03-31T07:35:44.408Z,75.86
2023-03-31T07:38:12.967Z,76.25
2023-03-31T07:40:43.886Z,75.45
2023-03-31T07:43:12.683Z,76.47
2023-03-31T07:45:41.222Z,76.14
2023-03-31T07:48:09.322Z,75.66
2023-03-31T07:50:37.485Z,75.00
2023-03-31T07:53:08.672Z,74.73
2023-03-31T07:55:36.776Z,74.87
2023-03-31T07:58:04.684Z,74.38
2023-03-31T08:00:32.777Z,74.95
2023-03-31T08:03:00.809Z,74.09
2023-03-31T08:05:28.967Z,74.43
2023-03-31T08:07:57.107Z,73.24
2023-03-31T08:10:27.052Z,72.79
2023-03-31T08:12:56.149Z,72.96
2023-03-31T08:15:24.575Z,72.32
2023-03-31T08:17:52.749Z,71.58
2023-03-31T08:20:21.007Z,71.75
2023-03-31T08:22:48.892Z,72.06
2023-03-31T08:25:17.622Z,70.60
2023-03-31T08:27:46.753Z,70.35
2023-03-31T08:30:15.014Z,69.52
2023-03-31T08:32:43.032Z,70.48
2023-03-31T08:35:11.945Z,70.19
2023-03-31T08:37:40.117Z,69.44
2023-03-31T08:40:15.396Z,69.89
2023-03-31T08:42:47.644Z,70.06
2023-03-31T08:45:29.987Z,69.49
2023-03-31T08:48:05.305Z,67.98
2023-03-31T08:50:40.465Z,68.38
2023-03-31T08:53:23.195Z,68.68
2023-03-31T08:55:53.770Z,68.07
2023-03-31T08:58:51.350Z,67.98
2023-03-31T09:01:52.298Z,67.85
2023-03-31T09:04:32.804Z,67.28
2023-03-31T09:07:39.329Z,67.68
2023-03-31T09:10:13.288Z,67.67
2023-03-31T09:13:00.746Z,66.89
2023-03-31T09:15:38.533Z,66.48
2023-03-31T09:18:35.665Z,66.16
2023-03-31T09:21:34.573Z,66.43
2023-03-31T09:24:14.086Z,66.06
2023-03-31T09:26:50.852Z,66.29
2023-03-31T09:29:27.237Z,66.45
2023-03-31T09:32:01.577Z,66.82
2023-03-31T09:34:33.585Z,66.89
2023-03-31T09:37:01.937Z,66.65
2023-03-31T09:39:29.966Z,65.89
2023-03-31T09:42:00.652Z,65.33
2023-03-31T09:44:38.100Z,65.15
2023-03-31T09:47:22.164Z,65.71
2023-03-31T09:49:53.809Z,64.83
2023-03-31T09:52:32.500Z,64.41
2023-03-31T09:55:02.772Z,64.89
2023-03-31T09:57:42.877Z,64.68
2023-03-31T10:00:20.660Z,64.64
2023-03-31T10:02:54.043Z,64.77
2023-03-31T10:05:28.370Z,64.56
2023-03-31T10:08:20.832Z,63.87
2023-03-31T10:10:54.929Z,63.66
2023-03-31T10:13:26.823Z,63.72
2023-03-31T10:16:01.893Z,63.57
2023-03-31T10:18:38.893Z,63.76
2023-03-31T10:21:18.398Z,63.56
2023-03-31T10:23:48.324Z,63.76
2023-03-31T10:26:26.825Z,63.28
2023-03-31T10:28:55.617Z,62.85
2023-03-31T10:31:34.583Z,62.69
2023-03-31T10:34:15.530Z,62.90
2023-03-31T10:36:48.339Z,62.98
2023-03-31T10:39:17.673Z,62.83
2023-03-31T10:41:53.075Z,62.51
2023-03-31T10:44:37.121Z,63.06
2023-03-31T10:47:25.499Z,62.72
2023-03-31T10:49:57.920Z,62.63
2023-03-31T10:52:27.444Z,63.10
2023-03-31T10:54:59.603Z,62.99
2023-03-31T10:57:47.916Z,62.85
2023-03-31T11:00:25.039Z,62.75
2023-03-31T11:03:32.019Z,62.07
2023-03-31T11:06:20.791Z,62.17
2023-03-31T11:08:54.771Z,61.68
2023-03-31T11:11:32.064Z,61.06
2023-03-31T11:14:12.568Z,60.01
2023-03-31T11:17:05.529Z,60.00
2023-03-31T11:19:56.265Z,60.00
2023-03-31T11:22:52.788Z,59.85
2023-03-31T11:25:48.590Z,60.72
2023-03-31T11:28:45.034Z,60.85
2023-03-31T11:31:31.746Z,60.90
2023-03-31T11:34:26.253Z,61.06
2023-03-31T11:37:51.049Z,61.42
2023-03-31T11:40:46.219Z,61.78
2023-03-31T11:43:32.324Z,62.12
2023-03-31T11:46:15.512Z,62.03
2023-03-31T11:48:48.579Z,61.76
2023-03-31T11:51:26.627Z,61.61
2023-03-31T11:53:58.686Z,61.99
2023-03-31T11:56:35.466Z,62.47
2023-03-31T11:59:04.653Z,62.33
2023-03-31T12:02:07.319Z,62.15
2023-03-31T12:04:46.948Z,62.39
2023-03-31T12:07:39.777Z,62.26
2023-03-31T12:10:32.388Z,62.05
2023-03-31T12:13:34.418Z,62.26
2023-03-31T12:16:22.751Z,61.99
2023-03-31T12:19:17.487Z,61.91
2023-03-31T12:22:15.354Z,61.85
2023-03-31T12:24:43.358Z,62.18
2023-03-31T12:27:24.002Z,62.25
2023-03-31T12:29:59.305Z,62.92
2023-03-31T12:32:34.871Z,62.84
2023-03-31T12:35:08.690Z,62.82
2023-03-31T12:38:07.074Z,62.85
2023-03-31T12:41:04.246Z,62.63
2023-03-31T12:43:32.384Z,62.89
2023-03-31T12:46:25.437Z,62.51
2023-03-31T12:49:31.224Z,61.90
2023-03-31T12:52:04.153Z,62.45
2023-03-31T12:54:57.464Z,61.69
2023-03-31T12:57:27.183Z,61.68
2023-03-31T13:00:21.168Z,61.39
2023-03-31T13:02:50.681Z,61.39
2023-03-31T13:05:38.231Z,61.08
2023-03-31T13:08:08.938Z,61.32
2023-03-31T13:10:57.961Z,61.44
2023-03-31T13:13:26.573Z,61.55
2023-03-31T13:15:57.111Z,61.59
2023-03-31T13:18:25.154Z,61.51
2023-03-31T13:21:00.610Z,61.97
2023-03-31T13:23:37.351Z,61.75
2023-03-31T13:26:06.951Z,61.99
2023-03-31T13:28:43.147Z,61.31
2023-03-31T13:31:16.012Z,61.67
2023-03-31T13:34:00.134Z,61.61
2023-03-31T13:36:34.340Z,61.45
2023-03-31T13:39:13.253Z,61.38
2023-03-31T13:42:06.436Z,61.48
2023-03-31T13:45:13.034Z,61.47
2023-03-31T13:47:50.847Z,61.30
2023-03-31T13:50:33.765Z,61.54
2023-03-31T13:53:38.015Z,62.01
2023-03-31T13:56:27.156Z,62.42
2023-03-31T13:59:04.552Z,62.95
2023-03-31T14:01:50.908Z,64.39
2023-03-31T14:04:37.879Z,65.07
2023-03-31T14:07:24.559Z,66.08
2023-03-31T14:09:54.134Z,67.25
2023-03-31T14:12:25.356Z,67.93
2023-03-31T14:14:54.721Z,68.21
2023-03-31T14:17:28.461Z,69.07
2023-03-31T14:20:11.769Z,68.99
2023-03-31T14:22:45.465Z,68.86
2023-03-31T14:25:48.554Z,69.84
2023-03-31T14:28:25.737Z,70.26
2023-03-31T14:31:03.122Z,71.18
2023-03-31T14:33:38.189Z,72.52
2023-03-31T14:36:29.694Z,73.02
2023-03-31T14:39:04.666Z,74.37
2023-03-31T14:41:33.181Z,74.28
2023-03-31T14:44:02.905Z,75.06
2023-03-31T14:46:35.476Z,74.53
2023-03-31T14:49:20.065Z,75.05
2023-03-31T14:51:51.581Z,75.43
2023-03-31T14:54:21.278Z,75.24
2023-03-31T14:56:58.592Z,75.36
2023-03-31T14:59:31.170Z,75.32
2023-03-31T15:02:01.048Z,75.28
2023-03-31T15:04:41.455Z,75.44
2023-03-31T15:07:11.933Z,74.91
2023-03-31T15:09:41.460Z,75.40
2023-03-31T15:12:15.216Z,75.06
2023-03-31T15:14:48.225Z,74.88
2023-03-31T15:17:20.614Z,75.25
2023-03-31T15:19:54.541Z,75.02
2023-03-31T15:22:25.937Z,75.07
2023-03-31T15:24:54.857Z,74.81
2023-03-31T15:27:37.986Z,75.34
2023-03-31T15:30:09.205Z,75.02
2023-03-31T15:32:40.348Z,74.84
2023-03-31T15:35:40.453Z,75.07
2023-03-31T15:38:16.453Z,75.07
2023-03-31T15:40:50.419Z,74.76
2023-03-31T15:43:30.690Z,74.68
2023-03-31T15:46:00.663Z,74.50
2023-03-31T15:48:33.339Z,74.92
2023-03-31T15:51:07.472Z,74.84
2023-03-31T15:53:38.422Z,74.89
2023-03-31T15:56:07.598Z,74.96
2023-03-31T15:58:53.748Z,74.85
2023-03-31T16:01:22.941Z,74.74
2023-03-31T16:03:54.928Z,74.86
2023-03-31T16:06:34.159Z,74.91
2023-03-31T16:09:06.219Z,75.04
2023-03-31T16:11:38.957Z,74.95
2023-03-31T16:14:16.857Z,75.10
2023-03-31T16:17:07.123Z,74.99
2023-03-31T16:19:50.654Z,75.21
2023-03-31T16:22:28.281Z,75.16
2023-03-31T16:24:56.605Z,75.21
2023-03-31T16:27:24.878Z,75.26
2023-03-31T16:30:07.299Z,75.28
2023-03-31T16:32:36.513Z,75.12
2023-03-31T16:35:05.916Z,75.16
2023-03-31T16:37:34.101Z,75.28
2023-03-31T16:40:02.520Z,75.25
2023-03-31T16:42:30.850Z,75.20
2023-03-31T16:45:13.188Z,75.22
2023-03-31T16:47:45.166Z,75.20
2023-03-31T16:50:15.391Z,75.41
2023-03-31T16:52:44.221Z,75.12
2023-03-31T16:55:12.210Z,75.21
2023-03-31T16:57:40.232Z,75.22
2023-03-31T17:00:08.893Z,75.25
2023-03-31T17:02:36.924Z,75.01
2023-03-31T17:05:13.267Z,75.21
2023-03-31T17:07:41.706Z,75.30
2023-03-31T17:10:10.296Z,75.19
2023-03-31T17:12:38.657Z,75.14
2023-03-31T17:15:07.427Z,75.05
2023-03-31T17:17:35.522Z,75.25
2023-03-31T17:20:05.419Z,75.28
2023-03-31T17:22:34.112Z,75.33
2023-03-31T17:25:03.276Z,75.06
2023-03-31T17:27:32.376Z,75.21
2023-03-31T17:30:00.841Z,75.22
2023-03-31T17:32:29.126Z,75.46
2023-03-31T17:34:57.237Z,75.52
2023-03-31T17:37:25.942Z,75.69
2023-03-31T17:39:53.965Z,75.51
2023-03-31T17:42:23.224Z,75.47
2023-03-31T17:44:53.355Z,75.59
2023-03-31T17:47:21.397Z,75.57
2023-03-31T17:49:49.513Z,75.47
2023-03-31T17:52:17.752Z,75.43
2023-03-31T17:54:46.590Z,75.40
2023-03-31T17:57:15.539Z,75.28
2023-03-31T17:59:43.523Z,75.38
2023-03-31T18:02:15.623Z,75.43
2023-03-31T18:04:44.029Z,75.16
2023-03-31T18:07:13.118Z,74.97
2023-03-31T18:09:41.170Z,74.91
2023-03-31T18:12:09.776Z,75.20
2023-03-31T18:14:38.389Z,74.88
2023-03-31T18:17:07.174Z,74.88
2023-03-31T18:19:35.236Z,74.79
2023-03-31T18:22:03.206Z,75.00
2023-03-31T18:24:32.477Z,74.65
2023-03-31T18:27:01.679Z,74.68
2023-03-31T18:29:30.046Z,74.66
2023-03-31T18:31:58.684Z,74.71
2023-03-31T18:34:26.837Z,74.79
2023-03-31T18:36:55.248Z,74.24
2023-03-31T18:39:24.121Z,74.45
2023-03-31T18:41:53.662Z,74.35
2023-03-31T18:44:22.054Z,74.49
2023-03-31T18:46:50.582Z,74.51
2023-03-31T18:49:20.312Z,74.43
2023-03-31T18:51:48.449Z,74.15
2023-03-31T18:54:17.026Z,74.33
2023-03-31T18:56:45.309Z,74.16
2023-03-31T18:59:14.050Z,73.99
2023-03-31T19:01:42.315Z,74.13
2023-03-31T19:04:10.672Z,74.21
2023-03-31T19:06:38.802Z,73.93
2023-03-31T19:09:06.940Z,74.26
2023-03-31T19:11:34.991Z,74.28
2023-03-31T19:14:03.002Z,74.55
2023-03-31T19:16:31.093Z,74.52
2023-03-31T19:18:59.452Z,74.44
2023-03-31T19:21:32.438Z,74.85
2023-03-31T19:24:00.607Z,74.58
2023-03-31T19:26:29.770Z,74.85
2023-03-31T19:29:00.400Z,74.67
2023-03-31T19:31:28.684Z,74.63
2023-03-31T19:33:57.881Z,74.73
2023-03-31T19:36:26.065Z,75.03
2023-03-31T19:38:54.042Z,75.31
2023-03-31T19:41:22.109Z,75.13
2023-03-31T19:43:50.158Z,75.40
2023-03-31T19:46:18.227Z,75.35
2023-03-31T19:48:49.573Z,75.68
2023-03-31T19:51:17.629Z,75.36
2023-03-31T19:53:46.199Z,75.67
2023-03-31T19:56:17.460Z,75.84
2023-03-31T19:58:47.225Z,75.90
2023-03-31T20:01:22.833Z,75.66
2023-03-31T20:03:53.510Z,75.71
2023-03-31T20:06:26.620Z,75.67
2023-03-31T20:08:59.981Z,75.73
2023-03-31T20:11:31.082Z,75.78
2023-03-31T20:14:38.447Z,75.99
2023-03-31T20:17:24.043Z,76.11
2023-03-31T20:19:55.468Z,76.15
2023-03-31T20:22:23.416Z,76.27
2023-03-31T20:24:51.957Z,76.44
2023-03-31T20:27:20.302Z,76.45
2023-03-31T20:29:48.246Z,76.53
2023-03-31T20:32:17.378Z,76.71
2023-03-31T20:34:45.480Z,76.65
2023-03-31T20:37:13.461Z,76.43
2023-03-31T20:39:42.378Z,76.32
2023-03-31T20:42:11.108Z,76.43
2023-03-31T20:44:39.089Z,76.57
2023-03-31T20:47:07.544Z,76.72
2023-03-31T20:49:35.995Z,76.85
2023-03-31T20:52:04.794Z,76.89
2023-03-31T20:54:32.768Z,76.68
2023-03-31T20:57:05.683Z,76.81
2023-03-31T20:59:34.014Z,76.86
2023-03-31T21:02:02.487Z,77.17
2023-03-31T21:04:30.461Z,77.04
2023-03-31T21:06:58.726Z,77.23
2023-03-31T21:09:26.730Z,77.29
2023-03-31T21:11:54.776Z,77.33
2023-03-31T21:14:22.748Z,77.46
2023-03-31T21:16:50.861Z,77.78
2023-03-31T21:19:19.050Z,77.79
2023-03-31T21:21:47.093Z,78.05
2023-03-31T21:24:15.081Z,78.30
2023-03-31T21:26:43.291Z,78.38
2023-03-31T21:29:11.492Z,79.12
2023-03-31T21:31:42.463Z,79.51
2023-03-31T21:34:11.090Z,79.33
2023-03-31T21:36:39.231Z,79.77
2023-03-31T21:39:07.959Z,79.56
2023-03-31T21:41:37.874Z,79.54
2023-03-31T21:44:06.569Z,79.41
2023-03-31T21:46:34.689Z,79.51
2023-03-31T21:49:03.862Z,79.45
2023-03-31T21:51:31.896Z,79.20
2023-03-31T21:53:59.892Z,79.20
2023-03-31T21:56:32.046Z,79.08
2023-03-31T21:59:02.414Z,78.88
2023-03-31T22:01:31.475Z,79.01
2023-03-31T22:04:00.427Z,78.88
2023-03-31T22:06:28.852Z,78.91
2023-03-31T22:08:56.932Z,78.75
2023-03-31T22:11:25.005Z,78.60
2023-03-31T22:13:52.998Z,78.73
2023-03-31T22:16:22.669Z,78.79
2023-03-31T22:18:51.606Z,78.76
2023-03-31T22:21:23.212Z,78.64
2023-03-31T22:23:53.288Z,78.80
2023-03-31T22:26:22.898Z,78.77
2023-03-31T22:28:50.978Z,78.96
2023-03-31T22:31:19.485Z,78.85
2023-03-31T22:33:50.265Z,78.94
2023-03-31T22:36:18.202Z,78.94
2023-03-31T22:38:46.609Z,79.05
2023-03-31T22:41:14.551Z,79.18
2023-03-31T22:43:45.307Z,79.21
2023-03-31T22:46:14.831Z,79.32
2023-03-31T22:48:42.952Z,79.50
2023-03-31T22:51:12.196Z,79.46
2023-03-31T22:53:40.553Z,79.56
2023-03-31T22:56:11.944Z,79.89
2023-03-31T22:58:39.948Z,79.83
2023-03-31T23:01:09.985Z,79.72
2023-03-31T23:03:38.279Z,79.85
2023-03-31T23:06:06.710Z,79.96
2023-03-31T23:08:36.967Z,80.20
2023-03-31T23:11:07.711Z,80.04
2023-03-31T23:13:36.087Z,80.12
2023-03-31T23:16:13.887Z,80.16
2023-03-31T23:18:45.974Z,80.22
2023-03-31T23:21:19.615Z,80.24
2023-03-31T23:23:50.596Z,80.42
2023-03-31T23:26:21.543Z,80.14
2023-03-31T23:28:50.458Z,80.22
2023-03-31T23:31:21.447Z,80.32
2023-03-31T23:33:49.954Z,80.38
2023-03-31T23:36:21.036Z,80.29
2023-03-31T23:38:50.644Z,80.41
2023-03-31T23:41:20.244Z,80.40
2023-03-31T23:43:48.551Z,80.46
2023-03-31T23:46:17.324Z,80.56
2023-03-31T23:48:45.604Z,80.68
2023-03-31T23:51:13.900Z,80.79
2023-03-31T23:53:42.003Z,80.85
2023-03-31T23:56:12.634Z,80.77
2023-03-31T23:58:42.971Z,80.81
